Time,TemperatureF,DewpointF,PressureIn,WindDirection,WindDirectionDegrees,WindSpeedMPH,WindSpeedGustMPH,Humidity,HourlyPrecipIn,Conditions,Clouds,dailyrainin,SolarRadiationWatts/m^2,SoftwareType,DateUTC
2013-05-08 00:32:00,58.0,54.0,-100.00,ENE,60,0.0,0.0,87,0.00,,,-99.99,0.000000,,2013-05-08 05:32:00,
2013-05-08 00:42:00,58.0,54.0,-100.00,ENE,60,0.0,0.0,87,0.00,,,-99.99,0.000000,,2013-05-08 05:42:00,
2013-05-08 00:52:00,58.0,54.0,-100.00,ENE,60,0.0,0.0,87,0.00,,,-99.99,0.000000,,2013-05-08 05:52:00,
2013-05-08 01:01:00,58.0,54.0,-100.00,ENE,60,0.0,0.0,87,0.00,,,-99.99,0.000000,,2013-05-08 06:01:00,
2013-05-08 01:22:00,56.0,52.0,-100.00,SE,133,0.0,0.0,87,0.00,,,0.00,0.000000,,2013-05-08 06:22:00,
2013-05-08 01:32:00,56.0,52.0,-100.00,SE,133,0.0,0.0,87,0.00,,,0.00,0.000000,,2013-05-08 06:32:00,
2013-05-08 01:42:00,56.0,52.0,-100.00,SE,133,0.0,0.0,87,0.00,,,0.00,0.000000,,2013-05-08 06:42:00,
2013-05-08 01:52:00,56.0,52.0,-100.00,SE,133,0.0,0.0,87,0.00,,,0.00,0.000000,,2013-05-08 06:52:00,
2013-05-08 02:01:00,56.0,52.0,-100.00,SE,133,0.0,0.0,87,0.00,,,0.00,0.000000,,2013-05-08 07:01:00,
2013-05-08 02:22:00,55.0,52.0,-100.00,ESE,117,0.0,0.0,88,0.00,,,0.00,0.000000,,2013-05-08 07:22:00,
2013-05-08 02:32:00,55.0,52.0,-100.00,ESE,117,0.0,0.0,88,0.00,,,0.00,0.000000,,2013-05-08 07:32:00,
2013-05-08 02:42:00,55.0,52.0,-100.00,ESE,117,0.0,0.0,88,0.00,,,0.00,0.000000,,2013-05-08 07:42:00,
2013-05-08 02:52:00,55.0,52.0,-100.00,ESE,117,0.0,0.0,88,0.00,,,0.00,0.000000,,2013-05-08 07:52:00,
2013-05-08 03:01:00,55.0,52.0,-100.00,ESE,117,0.0,0.0,88,0.00,,,0.00,0.000000,,2013-05-08 08:01:00,
2013-05-08 03:02:00,54.0,51.0,-100.00,NNE,29,0.0,0.0,88,0.00,,,0.00,0.000000,,2013-05-08 08:02:00,
2013-05-08 03:22:00,54.0,51.0,-100.00,NNE,29,0.0,0.0,88,0.00,,,0.00,0.000000,,2013-05-08 08:22:00,
2013-05-08 03:32:00,54.0,51.0,-100.00,NNE,29,0.0,0.0,88,0.00,,,0.00,0.000000,,2013-05-08 08:32:00,
2013-05-08 03:43:00,54.0,51.0,-100.00,NNE,29,0.0,0.0,88,0.00,,,0.00,0.000000,,2013-05-08 08:43:00,
2013-05-08 03:52:00,54.0,51.0,-100.00,NNE,29,0.0,0.0,88,0.00,,,0.00,0.000000,,2013-05-08 08:52:00,
2013-05-08 04:02:00,54.0,51.0,-100.00,ESE,104,0.0,0.0,89,0.00,,,0.00,0.000000,,2013-05-08 09:02:00,
2013-05-08 04:22:00,54.0,51.0,-100.00,ESE,104,0.0,0.0,89,0.00,,,0.00,0.000000,,2013-05-08 09:22:00,
2013-05-08 04:32:00,54.0,51.0,-100.00,ESE,104,0.0,0.0,89,0.00,,,0.00,0.000000,,2013-05-08 09:32:00,
2013-05-08 04:42:00,54.0,51.0,-100.00,ESE,104,0.0,0.0,89,0.00,,,0.00,0.000000,,2013-05-08 09:42:00,
2013-05-08 04:53:00,54.0,51.0,-100.00,ESE,104,0.0,0.0,89,0.00,,,0.00,0.000000,,2013-05-08 09:53:00,
2013-05-08 05:02:00,53.0,50.0,-100.00,East,97,0.0,0.0,88,0.00,,,0.00,0.000000,,2013-05-08 10:02:00,
2013-05-08 05:33:00,53.0,50.0,-100.00,East,97,0.0,0.0,88,0.00,,,0.00,0.000000,,2013-05-08 10:33:00,
2013-05-08 05:42:00,53.0,50.0,-100.00,East,97,0.0,0.0,88,0.00,,,0.00,0.000000,,2013-05-08 10:42:00,
2013-05-08 05:52:00,53.0,50.0,-100.00,East,97,0.0,0.0,88,0.00,,,0.00,0.000000,,2013-05-08 10:52:00,
2013-05-08 06:32:00,54.0,50.0,-100.00,ESE,120,2.0,4.0,87,0.00,,,0.00,0.000000,,2013-05-08 11:32:00,
2013-05-08 06:42:00,54.0,50.0,-100.00,ESE,120,2.0,4.0,87,0.00,,,0.00,0.000000,,2013-05-08 11:42:00,
2013-05-08 06:52:00,54.0,50.0,-100.00,ESE,120,2.0,4.0,87,0.00,,,0.00,0.000000,,2013-05-08 11:52:00,
2013-05-08 07:01:00,54.0,50.0,-100.00,ESE,120,2.0,4.0,87,0.00,,,0.00,0.000000,,2013-05-08 12:01:00,
2013-05-08 07:22:00,56.0,52.0,-100.00,East,85,2.0,4.0,85,0.00,,,0.00,19.000000,,2013-05-08 12:22:00,
2013-05-08 07:32:00,56.0,52.0,-100.00,East,85,2.0,4.0,85,0.00,,,0.00,19.000000,,2013-05-08 12:32:00,
2013-05-08 07:42:00,56.0,52.0,-100.00,East,85,2.0,4.0,85,0.00,,,0.00,19.000000,,2013-05-08 12:42:00,
2013-05-08 07:52:00,56.0,52.0,-100.00,East,85,2.0,4.0,85,0.00,,,0.00,19.000000,,2013-05-08 12:52:00,
2013-05-08 08:01:00,56.0,52.0,-100.00,East,85,2.0,4.0,85,0.00,,,0.00,19.000000,,2013-05-08 13:01:00,
2013-05-08 08:02:00,64.0,55.0,-100.00,East,79,2.0,4.0,72,0.00,,,0.00,189.000000,,2013-05-08 13:02:00,
2013-05-08 08:32:00,64.0,55.0,-100.00,East,79,2.0,4.0,72,0.00,,,0.00,189.000000,,2013-05-08 13:32:00,
2013-05-08 08:42:00,64.0,55.0,-100.00,East,79,2.0,4.0,72,0.00,,,0.00,189.000000,,2013-05-08 13:42:00,
2013-05-08 08:52:00,64.0,55.0,-100.00,East,79,2.0,4.0,72,0.00,,,0.00,189.000000,,2013-05-08 13:52:00,
2013-05-08 09:02:00,70.0,56.0,-100.00,ESE,109,3.0,7.0,61,0.00,,,0.00,384.000000,,2013-05-08 14:02:00,
2013-05-08 09:22:00,70.0,56.0,-100.00,ESE,109,3.0,7.0,61,0.00,,,0.00,384.000000,,2013-05-08 14:22:00,
2013-05-08 09:32:00,70.0,56.0,-100.00,ESE,109,3.0,7.0,61,0.00,,,0.00,384.000000,,2013-05-08 14:32:00,
2013-05-08 09:42:00,70.0,56.0,-100.00,ESE,109,3.0,7.0,61,0.00,,,0.00,384.000000,,2013-05-08 14:42:00,
2013-05-08 09:52:00,70.0,56.0,-100.00,ESE,109,3.0,7.0,61,0.00,,,0.00,384.000000,,2013-05-08 14:52:00,
2013-05-08 10:02:00,75.0,58.0,-100.00,SSE,167,4.0,7.0,55,0.00,,,0.00,629.000000,,2013-05-08 15:02:00,
2013-05-08 10:22:00,75.0,58.0,-100.00,SSE,167,4.0,7.0,55,0.00,,,0.00,629.000000,,2013-05-08 15:22:00,
2013-05-08 10:33:00,75.0,58.0,-100.00,SSE,167,4.0,7.0,55,0.00,,,0.00,629.000000,,2013-05-08 15:33:00,
2013-05-08 10:42:00,75.0,58.0,-100.00,SSE,167,4.0,7.0,55,0.00,,,0.00,629.000000,,2013-05-08 15:42:00,
2013-05-08 10:53:00,75.0,58.0,-100.00,SSE,167,4.0,7.0,55,0.00,,,0.00,629.000000,,2013-05-08 15:53:00,
2013-05-08 11:02:00,79.0,59.0,-100.00,South,176,4.0,7.0,51,0.00,,,-99.99,830.000000,,2013-05-08 16:02:00,
2013-05-08 11:23:00,79.0,59.0,-100.00,South,176,4.0,7.0,51,0.00,,,-99.99,830.000000,,2013-05-08 16:23:00,
2013-05-08 11:33:00,79.0,59.0,-100.00,South,176,4.0,7.0,51,0.00,,,-99.99,830.000000,,2013-05-08 16:33:00,
2013-05-08 11:42:00,79.0,59.0,-100.00,South,176,4.0,7.0,51,0.00,,,-99.99,830.000000,,2013-05-08 16:42:00,
2013-05-08 11:52:00,79.0,59.0,-100.00,South,176,4.0,7.0,51,0.00,,,-99.99,830.000000,,2013-05-08 16:52:00,
2013-05-08 12:02:00,81.0,59.0,-100.00,South,172,5.0,10.0,48,0.00,,,-99.99,942.000000,,2013-05-08 17:02:00,
2013-05-08 12:22:00,81.0,59.0,-100.00,South,172,5.0,10.0,48,0.00,,,-99.99,942.000000,,2013-05-08 17:22:00,
2013-05-08 12:32:00,81.0,59.0,-100.00,South,172,5.0,10.0,48,0.00,,,-99.99,942.000000,,2013-05-08 17:32:00,
2013-05-08 12:42:00,81.0,59.0,-100.00,South,172,5.0,10.0,48,0.00,,,-99.99,942.000000,,2013-05-08 17:42:00,
2013-05-08 12:52:00,81.0,59.0,-100.00,South,172,5.0,10.0,48,0.00,,,-99.99,942.000000,,2013-05-08 17:52:00,
2013-05-08 13:32:00,83.0,57.0,-100.00,SW,220,6.0,15.0,41,0.00,,,0.00,1053.000000,,2013-05-08 18:32:00,
2013-05-08 13:42:00,83.0,57.0,-100.00,SW,220,6.0,15.0,41,0.00,,,0.00,1053.000000,,2013-05-08 18:42:00,
2013-05-08 13:52:00,83.0,57.0,-100.00,SW,220,6.0,15.0,41,0.00,,,0.00,1053.000000,,2013-05-08 18:52:00,
2013-05-08 14:01:00,83.0,57.0,-100.00,SW,220,6.0,15.0,41,0.00,,,0.00,1053.000000,,2013-05-08 19:01:00,
2013-05-08 14:02:00,84.0,58.0,-100.00,SSW,195,5.0,16.0,42,0.00,,,0.00,1002.000000,,2013-05-08 19:02:00,
2013-05-08 14:32:00,84.0,58.0,-100.00,SSW,195,5.0,16.0,42,0.00,,,0.00,1002.000000,,2013-05-08 19:32:00,
2013-05-08 14:42:00,84.0,58.0,-100.00,SSW,195,5.0,16.0,42,0.00,,,0.00,1002.000000,,2013-05-08 19:42:00,
2013-05-08 14:52:00,84.0,58.0,-100.00,SSW,195,5.0,16.0,42,0.00,,,0.00,1002.000000,,2013-05-08 19:52:00,
2013-05-08 15:22:00,83.0,58.0,-100.00,SSE,168,5.0,12.0,42,0.00,,,0.00,804.000000,,2013-05-08 20:22:00,
2013-05-08 15:32:00,83.0,58.0,-100.00,SSE,168,5.0,12.0,42,0.00,,,0.00,804.000000,,2013-05-08 20:32:00,
2013-05-08 15:42:00,83.0,58.0,-100.00,SSE,168,5.0,12.0,42,0.00,,,0.00,804.000000,,2013-05-08 20:42:00,
2013-05-08 15:52:00,83.0,58.0,-100.00,SSE,168,5.0,12.0,42,0.00,,,0.00,804.000000,,2013-05-08 20:52:00,
2013-05-08 16:01:00,83.0,58.0,-100.00,SSE,168,5.0,12.0,42,0.00,,,0.00,804.000000,,2013-05-08 21:01:00,
2013-05-08 16:02:00,81.0,58.0,-100.00,South,177,4.0,9.0,45,0.00,,,0.00,271.000000,,2013-05-08 21:02:00,
2013-05-08 16:33:00,81.0,58.0,-100.00,South,177,4.0,9.0,45,0.00,,,0.00,271.000000,,2013-05-08 21:33:00,
2013-05-08 16:43:00,81.0,58.0,-100.00,South,177,4.0,9.0,45,0.00,,,0.00,271.000000,,2013-05-08 21:43:00,
2013-05-08 16:53:00,81.0,58.0,-100.00,South,177,4.0,9.0,45,0.00,,,0.00,271.000000,,2013-05-08 21:53:00,
2013-05-08 17:33:00,81.0,57.0,-100.00,SSE,165,4.0,9.0,44,0.00,,,0.00,308.000000,,2013-05-08 22:33:00,
2013-05-08 17:42:00,81.0,57.0,-100.00,SSE,165,4.0,9.0,44,0.00,,,0.00,308.000000,,2013-05-08 22:42:00,
2013-05-08 17:53:00,81.0,57.0,-100.00,SSE,165,4.0,9.0,44,0.00,,,0.00,308.000000,,2013-05-08 22:53:00,
2013-05-08 18:01:00,81.0,57.0,-100.00,SSE,165,4.0,9.0,44,0.00,,,0.00,308.000000,,2013-05-08 23:01:00,
2013-05-08 18:02:00,83.0,59.0,-100.00,SSE,147,5.0,10.0,44,0.00,,,0.00,468.000000,,2013-05-08 23:02:00,
2013-05-08 18:22:00,83.0,59.0,-100.00,SSE,147,5.0,10.0,44,0.00,,,0.00,468.000000,,2013-05-08 23:22:00,
2013-05-08 18:32:00,83.0,59.0,-100.00,SSE,147,5.0,10.0,44,0.00,,,0.00,468.000000,,2013-05-08 23:32:00,
2013-05-08 18:42:00,83.0,59.0,-100.00,SSE,147,5.0,10.0,44,0.00,,,0.00,468.000000,,2013-05-08 23:42:00,
2013-05-08 18:52:00,83.0,59.0,-100.00,SSE,147,5.0,10.0,44,0.00,,,0.00,468.000000,,2013-05-08 23:52:00,
2013-05-08 19:32:00,81.0,56.0,-100.00,SSE,161,4.0,13.0,43,0.00,,,0.00,245.000000,,2013-05-09 00:32:00,
2013-05-08 19:42:00,81.0,56.0,-100.00,SSE,161,4.0,13.0,43,0.00,,,0.00,245.000000,,2013-05-09 00:42:00,
2013-05-08 19:52:00,81.0,56.0,-100.00,SSE,161,4.0,13.0,43,0.00,,,0.00,245.000000,,2013-05-09 00:52:00,
2013-05-08 20:01:00,81.0,56.0,-100.00,SSE,161,4.0,13.0,43,0.00,,,0.00,245.000000,,2013-05-09 01:01:00,
2013-05-08 20:02:00,76.0,58.0,-100.00,SE,140,2.0,7.0,54,0.00,,,0.00,44.000000,,2013-05-09 01:02:00,
2013-05-08 20:22:00,76.0,58.0,-100.00,SE,140,2.0,7.0,54,0.00,,,0.00,44.000000,,2013-05-09 01:22:00,
2013-05-08 20:32:00,76.0,58.0,-100.00,SE,140,2.0,7.0,54,0.00,,,0.00,44.000000,,2013-05-09 01:32:00,
2013-05-08 20:42:00,76.0,58.0,-100.00,SE,140,2.0,7.0,54,0.00,,,0.00,44.000000,,2013-05-09 01:42:00,
2013-05-08 20:52:00,76.0,58.0,-100.00,SE,140,2.0,7.0,54,0.00,,,0.00,44.000000,,2013-05-09 01:52:00,
2013-05-08 21:33:00,70.0,59.0,-100.00,East,89,2.0,6.0,67,0.00,,,0.00,0.000000,,2013-05-09 02:33:00,
2013-05-08 21:42:00,70.0,59.0,-100.00,East,89,2.0,6.0,67,0.00,,,0.00,0.000000,,2013-05-09 02:42:00,
2013-05-08 21:52:00,70.0,59.0,-100.00,East,89,2.0,6.0,67,0.00,,,0.00,0.000000,,2013-05-09 02:52:00,
2013-05-08 22:01:00,70.0,59.0,-100.00,East,89,2.0,6.0,67,0.00,,,0.00,0.000000,,2013-05-09 03:01:00,
2013-05-08 22:02:00,71.0,59.0,-100.00,ESE,118,3.0,6.0,65,0.00,,,0.00,0.000000,,2013-05-09 03:02:00,
2013-05-08 22:21:00,71.0,59.0,-100.00,ESE,118,3.0,6.0,65,0.00,,,0.00,0.000000,,2013-05-09 03:21:00,
2013-05-08 22:33:00,71.0,59.0,-100.00,ESE,118,3.0,6.0,65,0.00,,,0.00,0.000000,,2013-05-09 03:33:00,
2013-05-08 22:43:00,71.0,59.0,-100.00,ESE,118,3.0,6.0,65,0.00,,,0.00,0.000000,,2013-05-09 03:43:00,
2013-05-08 22:53:00,71.0,59.0,-100.00,ESE,118,3.0,6.0,65,0.00,,,0.00,0.000000,,2013-05-09 03:53:00,
2013-05-08 23:02:00,71.0,59.0,-100.00,SE,133,2.0,7.0,65,0.00,,,0.00,0.000000,,2013-05-09 04:02:00,
2013-05-08 23:23:00,71.0,59.0,-100.00,SE,133,2.0,7.0,65,0.00,,,0.00,0.000000,,2013-05-09 04:23:00,
2013-05-08 23:33:00,71.0,59.0,-100.00,SE,133,2.0,7.0,65,0.00,,,0.00,0.000000,,2013-05-09 04:33:00,
2013-05-08 23:43:00,71.0,59.0,-100.00,SE,133,2.0,7.0,65,0.00,,,0.00,0.000000,,2013-05-09 04:43:00,
2013-05-08 23:53:00,71.0,59.0,-100.00,SE,133,2.0,7.0,65,0.00,,,0.00,0.000000,,2013-05-09 04:53:00,